Time;durP1;ratioP1;P1;durP2;ratioP2;P2;SDS_P1;SDS_P2;PMS_P1;PMS_P2;Temp;Humidity;BMP_temperature;BMP_pressure;BME280_temperature;BME280_humidity;BME280_pressure;Samples;Min_cycle;Max_cycle;Signal;HPM_P1;HPM_P2
2023/08/16 00:00:14;;;;;;;8.57;5.22;;;;;;;22.87;100.00;99298.16;5068383;28;20202;-58
2023/08/16 00:02:41;;;;;;;7.25;4.93;;;;;;;22.77;100.00;99301.06;5068468;28;20507;-58
2023/08/16 00:05:08;;;;;;;7.00;5.03;;;;;;;22.73;100.00;99288.59;5068437;28;20587;-58
2023/08/16 00:07:35;;;;;;;10.50;4.97;;;;;;;22.75;100.00;99286.63;5068326;28;20558;-58
2023/08/16 00:10:04;;;;;;;8.18;5.50;;;;;;;22.70;100.00;99284.56;5068469;28;20745;-58
2023/08/16 00:12:31;;;;;;;9.00;5.00;;;;;;;22.64;100.00;99295.72;5068599;28;20198;-58
2023/08/16 00:14:58;;;;;;;9.02;5.63;;;;;;;22.56;100.00;99295.81;5067635;28;20213;-59
2023/08/16 00:17:24;;;;;;;10.52;5.70;;;;;;;22.56;100.00;99290.59;5068561;28;20199;-58
2023/08/16 00:19:51;;;;;;;6.22;4.65;;;;;;;22.58;100.00;99291.25;5068541;28;20264;-58
2023/08/16 00:22:18;;;;;;;8.70;5.47;;;;;;;22.55;100.00;99268.16;5067859;28;20203;-58
2023/08/16 00:24:45;;;;;;;9.95;5.68;;;;;;;22.52;100.00;99277.16;5067857;28;20226;-58
2023/08/16 00:27:14;;;;;;;9.25;5.15;;;;;;;22.49;100.00;99276.72;5068189;28;20245;-58
2023/08/16 00:29:40;;;;;;;8.18;4.82;;;;;;;22.50;100.00;99283.53;5067722;28;20723;-58
2023/08/16 00:32:10;;;;;;;6.65;5.00;;;;;;;22.53;100.00;99290.97;5067574;28;20210;-58
2023/08/16 00:34:37;;;;;;;11.23;5.55;;;;;;;22.50;100.00;99280.91;5068368;28;20195;-58
2023/08/16 00:37:04;;;;;;;7.25;5.00;;;;;;;22.46;100.00;99270.06;5067741;28;20198;-58
2023/08/16 00:39:31;;;;;;;8.18;5.25;;;;;;;22.45;100.00;99278.03;5067355;28;20203;-58
2023/08/16 00:41:58;;;;;;;7.75;5.25;;;;;;;22.44;100.00;99277.25;5068080;28;20205;-59
2023/08/16 00:44:26;;;;;;;9.82;5.30;;;;;;;22.47;100.00;99268.25;5068004;28;20582;-58
2023/08/16 00:46:54;;;;;;;8.43;5.00;;;;;;;22.45;100.00;99270.22;5067385;28;20205;-58
2023/08/16 00:49:21;;;;;;;7.97;5.30;;;;;;;22.43;100.00;99287.84;5067688;28;20743;-58
2023/08/16 00:51:48;;;;;;;7.85;5.30;;;;;;;22.40;100.00;99299.44;5067913;28;20286;-58
2023/08/16 00:54:15;;;;;;;9.15;5.40;;;;;;;22.38;100.00;99312.66;5067139;28;20222;-58
2023/08/16 01:25:26;;;;;;;8.68;6.18;;;;;;;22.00;100.00;99272.88;5125286;27;21114;-62
2023/08/16 01:27:55;;;;;;;9.52;6.18;;;;;;;21.95;100.00;99287.41;5125940;27;20196;-62
2023/08/16 01:30:23;;;;;;;10.05;6.20;;;;;;;21.95;100.00;99288.22;5125668;27;20250;-62
2023/08/16 01:32:50;;;;;;;9.10;5.80;;;;;;;21.90;100.00;99277.50;5125242;27;20232;-61
2023/08/16 01:35:17;;;;;;;12.53;6.17;;;;;;;21.89;100.00;99276.72;5126064;27;20201;-62
2023/08/16 01:37:44;;;;;;;8.63;6.23;;;;;;;21.78;100.00;99281.56;5125366;27;20220;-62
2023/08/16 01:40:12;;;;;;;9.37;6.00;;;;;;;21.76;100.00;99271.34;5125386;27;20208;-62
2023/08/16 01:42:43;;;;;;;7.73;5.93;;;;;;;21.70;100.00;99264.25;5125262;27;20224;-61
2023/08/16 01:45:13;;;;;;;8.52;6.00;;;;;;;21.70;100.00;99274.66;5125367;27;20208;-62
2023/08/16 01:47:40;;;;;;;9.48;6.07;;;;;;;21.72;100.00;99267.47;5124625;27;20200;-61
2023/08/16 01:50:07;;;;;;;7.78;5.82;;;;;;;21.73;100.00;99266.50;5125738;27;20585;-62
2023/08/16 01:52:35;;;;;;;8.90;5.63;;;;;;;21.73;100.00;99274.28;5125773;27;20204;-61
2023/08/16 01:55:02;;;;;;;9.57;5.83;;;;;;;21.73;100.00;99281.28;5124655;27;20209;-61
2023/08/16 01:57:29;;;;;;;11.47;6.10;;;;;;;21.65;100.00;99279.56;5125020;27;20204;-61
2023/08/16 01:59:56;;;;;;;7.77;5.83;;;;;;;21.69;100.00;99265.22;5125377;27;20611;-61
2023/08/16 02:02:25;;;;;;;9.10;6.43;;;;;;;21.66;100.00;99265.56;5124925;27;20208;-61
2023/08/16 02:04:52;;;;;;;8.83;6.23;;;;;;;21.58;100.00;99261.25;5124914;27;20664;-61
2023/08/16 02:07:18;;;;;;;9.73;6.03;;;;;;;21.56;100.00;99265.03;5125348;27;20227;-61
2023/08/16 02:09:45;;;;;;;8.27;5.93;;;;;;;21.48;100.00;99274.50;5124947;27;20208;-61
2023/08/16 02:12:12;;;;;;;10.43;6.10;;;;;;;21.42;100.00;99283.03;5124537;27;20200;-62
2023/08/16 02:14:39;;;;;;;10.23;6.63;;;;;;;21.42;100.00;99275.22;5125273;27;20236;-61
2023/08/16 02:17:06;;;;;;;9.53;5.80;;;;;;;21.37;100.00;99272.34;5125121;27;20788;-62
2023/08/16 02:19:34;;;;;;;8.83;6.47;;;;;;;21.33;100.00;99276.25;5124461;27;20197;-61
2023/08/16 02:22:01;;;;;;;8.10;5.57;;;;;;;21.29;100.00;99264.56;5125500;27;20197;-61
2023/08/16 02:24:27;;;;;;;14.90;6.40;;;;;;;21.24;100.00;99266.91;5120458;27;20217;-61
2023/08/16 02:26:54;;;;;;;9.93;6.03;;;;;;;21.19;100.00;99270.00;5110250;28;20693;-62
2023/08/16 02:29:21;;;;;;;11.37;5.90;;;;;;;21.16;100.00;99264.38;5109903;28;20219;-62
2023/08/16 02:31:48;;;;;;;9.63;6.00;;;;;;;21.14;100.00;99274.13;5110573;28;20737;-62
2023/08/16 02:34:15;;;;;;;10.20;6.47;;;;;;;21.11;100.00;99277.06;5110724;28;20236;-61
2023/08/16 02:36:43;;;;;;;8.70;6.20;;;;;;;21.12;100.00;99274.31;5111198;28;20334;-61
2023/08/16 02:39:10;;;;;;;10.13;6.10;;;;;;;21.09;100.00;99281.63;5110552;28;20211;-62
2023/08/16 02:41:37;;;;;;;9.53;6.00;;;;;;;21.11;100.00;99267.47;5110817;28;20709;-61
2023/08/16 02:44:04;;;;;;;9.33;6.37;;;;;;;21.12;100.00;99265.69;5111110;28;20227;-61
2023/08/16 02:46:31;;;;;;;11.37;6.67;;;;;;;21.13;100.00;99264.72;5110321;28;20201;-61
2023/08/16 02:48:58;;;;;;;10.93;6.57;;;;;;;21.12;100.00;99266.50;5110043;28;20207;-61
2023/08/16 02:51:25;;;;;;;8.80;6.00;;;;;;;21.12;100.00;99268.28;5110938;28;20228;-62
2023/08/16 02:53:53;;;;;;;9.53;6.33;;;;;;;21.12;100.00;99265.69;5110429;28;20708;-61
2023/08/16 02:56:20;;;;;;;9.97;6.57;;;;;;;21.10;100.00;99259.88;5109953;28;20210;-62
2023/08/16 02:58:47;;;;;;;8.53;6.23;;;;;;;21.09;100.00;99266.03;5110417;28;20673;-61
2023/08/16 03:01:14;;;;;;;8.20;5.83;;;;;;;21.06;100.00;99271.56;5110959;28;20197;-61
2023/08/16 03:03:42;;;;;;;10.83;6.33;;;;;;;21.09;100.00;99273.81;5109897;28;20241;-62
2023/08/16 03:06:09;;;;;;;8.20;5.73;;;;;;;21.11;100.00;99274.47;5110513;28;20198;-61
2023/08/16 03:08:35;;;;;;;10.23;6.57;;;;;;;21.11;100.00;99279.66;5110479;28;20780;-61
2023/08/16 03:11:04;;;;;;;13.37;6.47;;;;;;;21.12;100.00;99278.69;5110063;28;20212;-61
2023/08/16 03:13:31;;;;;;;9.53;6.50;;;;;;;21.10;100.00;99278.88;5109870;28;20243;-61
2023/08/16 03:15:57;;;;;;;9.80;5.87;;;;;;;21.08;100.00;99288.63;5110470;28;20201;-61
2023/08/16 03:18:24;;;;;;;9.80;5.90;;;;;;;21.03;100.00;99286.56;5110258;28;20212;-62
2023/08/16 03:20:51;;;;;;;12.03;6.07;;;;;;;20.99;100.00;99282.66;5109435;28;20684;-62
2023/08/16 03:23:18;;;;;;;8.73;6.17;;;;;;;20.98;100.00;99278.47;5109994;28;20222;-61
2023/08/16 03:25:45;;;;;;;10.33;6.47;;;;;;;20.96;100.00;99279.63;5110279;28;20203;-61
2023/08/16 03:28:13;;;;;;;8.20;5.73;;;;;;;20.97;100.00;99284.66;5109177;28;20312;-61
2023/08/16 03:30:40;;;;;;;11.03;5.97;;;;;;;20.97;100.00;99287.25;5109896;28;20201;-61
2023/08/16 03:33:07;;;;;;;10.00;6.60;;;;;;;20.94;100.00;99292.81;5109760;28;20215;-61
2023/08/16 03:35:35;;;;;;;10.20;6.07;;;;;;;20.93;100.00;99285.97;5108832;28;20362;-62
2023/08/16 03:38:02;;;;;;;8.23;6.20;;;;;;;20.90;100.00;99294.09;5109014;28;20262;-62
2023/08/16 03:40:29;;;;;;;9.53;6.50;;;;;;;20.89;100.00;99294.28;5109982;28;20294;-62
2023/08/16 03:42:56;;;;;;;9.30;6.30;;;;;;;20.88;100.00;99293.47;5109238;28;20199;-61
2023/08/16 03:45:25;;;;;;;9.33;6.10;;;;;;;20.86;100.00;99295.44;5109200;28;20204;-61
2023/08/16 03:47:53;;;;;;;9.77;6.33;;;;;;;20.86;100.00;99300.66;5109485;28;20712;-61
2023/08/16 03:50:20;;;;;;;10.17;6.33;;;;;;;20.88;100.00;99301.25;5109373;28;20654;-62
2023/08/16 03:52:47;;;;;;;8.87;6.37;;;;;;;20.85;100.00;99293.81;5108893;27;20612;-61
2023/08/16 03:55:14;;;;;;;10.03;6.50;;;;;;;20.82;100.00;99294.16;5109455;28;20240;-62
2023/08/16 03:57:41;;;;;;;8.07;5.73;;;;;;;20.86;100.00;99287.66;5109450;28;20195;-61
2023/08/16 04:00:11;;;;;;;10.07;5.83;;;;;;;20.88;100.00;99283.06;5108750;28;20200;-61
2023/08/16 04:02:40;;;;;;;9.20;6.07;;;;;;;20.84;100.00;99275.81;5109302;28;20295;-62
2023/08/16 04:05:11;;;;;;;8.63;6.23;;;;;;;20.81;100.00;99274.34;5109694;27;20219;-62
2023/08/16 04:07:39;;;;;;;10.03;6.30;;;;;;;20.79;100.00;99279.72;5108835;28;20203;-61
2023/08/16 04:10:07;;;;;;;9.80;5.93;;;;;;;20.78;100.00;99272.09;5108767;27;20195;-62
2023/08/16 04:12:34;;;;;;;8.30;6.00;;;;;;;20.77;100.00;99273.09;5109250;28;20199;-62
2023/08/16 04:15:01;;;;;;;9.83;6.60;;;;;;;20.75;100.00;99277.66;5108890;28;20296;-62
2023/08/16 04:17:28;;;;;;;9.83;6.40;;;;;;;20.77;100.00;99275.69;5108378;28;20219;-61
2023/08/16 04:19:56;;;;;;;9.27;6.43;;;;;;;20.75;100.00;99264.66;5108899;28;20396;-61
2023/08/16 04:22:23;;;;;;;8.97;5.87;;;;;;;20.77;100.00;99275.69;5108971;28;20200;-61
2023/08/16 04:24:49;;;;;;;8.63;6.10;;;;;;;20.80;100.00;99265.75;5107883;28;20715;-61
2023/08/16 04:27:16;;;;;;;8.83;5.80;;;;;;;20.79;100.00;99269.31;5108885;28;20200;-62
2023/08/16 04:29:43;;;;;;;9.97;6.27;;;;;;;20.78;100.00;99275.50;5108835;28;20203;-61
2023/08/16 04:32:10;;;;;;;9.27;5.97;;;;;;;20.79;100.00;99268.50;5108090;28;20195;-61
2023/08/16 04:34:37;;;;;;;8.43;5.83;;;;;;;20.84;100.00;99281.00;5108450;28;20235;-61
2023/08/16 04:37:05;;;;;;;8.53;5.93;;;;;;;20.89;100.00;99282.09;5108979;28;20208;-61
2023/08/16 04:39:32;;;;;;;8.87;6.00;;;;;;;20.96;100.00;99285.63;5108067;28;20360;-61
2023/08/16 04:41:59;;;;;;;11.00;5.63;;;;;;;21.07;100.00;99286.22;5107924;28;20230;-61
2023/08/16 04:44:26;;;;;;;11.97;5.90;;;;;;;21.17;100.00;99292.78;5108648;28;20207;-61
2023/08/16 04:46:53;;;;;;;8.20;5.60;;;;;;;21.28;100.00;99288.16;5108257;28;20681;-62
2023/08/16 04:49:20;;;;;;;11.50;6.37;;;;;;;21.39;100.00;99291.19;5107586;28;20215;-61
2023/08/16 04:51:47;;;;;;;8.10;5.73;;;;;;;21.50;100.00;99291.72;5108661;28;20210;-61
2023/08/16 04:54:15;;;;;;;7.97;5.83;;;;;;;21.65;100.00;99303.00;5108369;28;20619;-61
2023/08/16 04:56:42;;;;;;;8.00;5.80;;;;;;;21.79;100.00;99297.00;5108084;28;20204;-61
2023/08/16 04:59:09;;;;;;;8.93;5.60;;;;;;;21.89;100.00;99307.94;5108514;28;20602;-61
2023/08/16 05:01:36;;;;;;;8.23;5.27;;;;;;;22.05;100.00;99295.75;5108583;28;20232;-61
2023/08/16 05:04:06;;;;;;;8.90;5.97;;;;;;;22.18;100.00;99306.38;5108204;28;20201;-61
2023/08/16 05:06:33;;;;;;;15.68;5.03;;;;;;;22.32;100.00;99302.97;5108415;28;20193;-61
2023/08/16 05:09:00;;;;;;;8.65;5.22;;;;;;;22.44;100.00;99305.09;5108141;28;20193;-61
2023/08/16 05:11:28;;;;;;;8.50;5.47;;;;;;;22.62;100.00;99297.69;5108323;28;20204;-61
2023/08/16 05:13:55;;;;;;;7.90;5.65;;;;;;;22.73;100.00;99299.81;5107895;28;20229;-61
2023/08/16 05:16:22;;;;;;;7.97;5.53;;;;;;;22.78;100.00;99300.09;5108622;28;20280;-61
2023/08/16 05:18:49;;;;;;;7.28;5.60;;;;;;;22.77;98.45;99301.06;5107845;28;20201;-61
2023/08/16 05:21:15;;;;;;;7.38;5.68;;;;;;;22.87;99.77;99306.00;5108474;28;20193;-61
2023/08/16 05:23:41;;;;;;;8.18;5.60;;;;;;;23.00;100.00;99305.34;5108443;28;20212;-61
2023/08/16 05:26:10;;;;;;;10.30;5.50;;;;;;;23.13;99.81;99310.69;5108413;28;20197;-61
2023/08/16 05:28:38;;;;;;;8.57;5.45;;;;;;;23.26;98.25;99308.19;5108014;28;20239;-61
2023/08/16 05:31:09;;;;;;;10.00;5.93;;;;;;;23.47;98.25;99301.31;5108245;28;20697;-61
2023/08/16 05:33:35;;;;;;;8.18;5.53;;;;;;;23.55;96.60;99298.59;5108018;28;20193;-61
2023/08/16 05:36:02;;;;;;;7.80;5.57;;;;;;;23.69;96.38;99307.31;5108508;28;20197;-61
2023/08/16 05:38:29;;;;;;;8.75;5.50;;;;;;;23.87;94.97;99312.09;5107906;28;20700;-61
2023/08/16 05:40:56;;;;;;;7.72;5.63;;;;;;;24.00;93.27;99312.19;5107943;28;20490;-61
2023/08/16 05:43:23;;;;;;;11.80;5.38;;;;;;;24.09;94.82;99305.81;5108154;28;20221;-61
2023/08/16 05:45:52;;;;;;;8.27;5.53;;;;;;;24.20;94.51;99306.25;5107786;28;20205;-61
2023/08/16 05:48:19;;;;;;;8.00;5.32;;;;;;;24.24;95.12;99302.25;5108123;28;20201;-60
2023/08/16 05:50:48;;;;;;;6.45;5.22;;;;;;;24.34;91.95;99307.91;5107912;28;20197;-61
2023/08/16 05:53:15;;;;;;;7.47;5.22;;;;;;;24.34;90.39;99305.31;5107811;28;20202;-61
2023/08/16 05:55:42;;;;;;;8.32;5.50;;;;;;;24.44;91.36;99305.78;5107631;28;20307;-60
2023/08/16 05:58:09;;;;;;;7.78;5.43;;;;;;;24.58;90.40;99315.31;5107889;28;20193;-60
2023/08/16 06:00:36;;;;;;;10.07;5.88;;;;;;;24.71;87.43;99303.25;5110214;28;20202;-60
2023/08/16 06:03:04;;;;;;;8.38;5.82;;;;;;;24.85;89.17;99300.47;5111667;28;20198;-61
2023/08/16 06:05:31;;;;;;;8.45;5.50;;;;;;;24.91;90.19;99306.72;5111631;28;20204;-61
2023/08/16 06:07:58;;;;;;;7.68;5.60;;;;;;;24.99;87.60;99311.78;5111448;28;20701;-61
2023/08/16 06:10:25;;;;;;;7.53;5.90;;;;;;;25.10;85.32;99301.72;5111475;28;20795;-61
2023/08/16 06:12:52;;;;;;;6.85;5.55;;;;;;;25.18;85.73;99307.59;5111258;28;20288;-61
2023/08/16 06:15:19;;;;;;;9.88;5.45;;;;;;;25.31;86.03;99306.81;5111407;28;20229;-60
2023/08/16 06:17:46;;;;;;;23.77;14.57;;;;;;;25.34;83.17;99306.41;5111528;28;20221;-61
2023/08/16 06:20:14;;;;;;;8.40;6.28;;;;;;;25.34;82.81;99305.56;5111231;28;20198;-60
2023/08/16 06:22:41;;;;;;;7.35;4.97;;;;;;;25.41;84.91;99299.34;5111074;28;20693;-61
2023/08/16 06:25:09;;;;;;;6.07;5.00;;;;;;;25.50;83.52;99303.38;5111423;28;20262;-61
2023/08/16 06:27:36;;;;;;;7.38;4.90;;;;;;;25.58;84.96;99298.94;5110923;28;20197;-60
2023/08/16 06:30:03;;;;;;;6.72;4.40;;;;;;;25.63;84.28;99291.28;5111328;28;20207;-61
2023/08/16 06:32:30;;;;;;;6.28;5.03;;;;;;;25.86;84.30;99296.94;5111394;28;20197;-60
2023/08/16 06:34:57;;;;;;;6.65;4.95;;;;;;;25.93;82.97;99297.69;5111011;28;20622;-60
2023/08/16 06:37:25;;;;;;;6.93;4.75;;;;;;;26.05;83.12;99299.69;5111222;28;20197;-61
2023/08/16 06:39:52;;;;;;;8.60;4.82;;;;;;;26.09;80.86;99316.59;5110808;28;20198;-61
2023/08/16 06:42:19;;;;;;;5.20;4.07;;;;;;;26.12;79.70;99308.31;5111031;28;20189;-61
2023/08/16 06:44:46;;;;;;;7.22;4.90;;;;;;;26.19;81.81;99301.25;5110889;28;20198;-60
2023/08/16 06:47:13;;;;;;;5.75;4.63;;;;;;;26.20;79.95;99310.72;5110740;28;20279;-61
2023/08/16 06:49:40;;;;;;;7.15;4.50;;;;;;;26.28;78.32;99307.06;5110974;28;20209;-60
2023/08/16 06:52:07;;;;;;;6.72;4.72;;;;;;;26.25;76.92;99305.69;5111045;28;20609;-60
2023/08/16 06:54:35;;;;;;;6.30;4.85;;;;;;;26.25;77.60;99304.88;5109181;28;20697;-61
2023/08/16 06:57:02;;;;;;;7.00;5.63;;;;;;;26.26;78.85;99302.03;5109549;28;20202;-60
2023/08/16 06:59:31;;;;;;;7.25;4.90;;;;;;;26.43;79.14;99302.38;5110851;28;20559;-60
2023/08/16 07:01:58;;;;;;;5.68;4.22;;;;;;;26.56;77.88;99312.03;5110426;27;20758;-60
2023/08/16 07:04:26;;;;;;;6.38;4.45;;;;;;;26.68;79.58;99304.31;5110453;28;20224;-61
2023/08/16 07:06:53;;;;;;;5.70;4.30;;;;;;;26.87;77.67;99312.03;5110397;28;20197;-61
2023/08/16 07:09:20;;;;;;;9.00;4.80;;;;;;;26.99;76.18;99306.13;5110077;28;20201;-60
2023/08/16 07:11:48;;;;;;;6.82;4.63;;;;;;;26.88;77.76;99315.50;5109803;28;20205;-60
2023/08/16 07:14:15;;;;;;;6.55;4.82;;;;;;;26.91;79.45;99309.81;5110186;28;20228;-60
2023/08/16 07:16:42;;;;;;;7.03;4.90;;;;;;;26.95;82.12;99307.56;5109779;28;20681;-60
2023/08/16 07:19:09;;;;;;;6.20;4.80;;;;;;;27.09;81.27;99307.28;5110132;28;20201;-60
2023/08/16 07:21:36;;;;;;;9.20;5.00;;;;;;;27.00;78.15;99313.00;5110351;28;20247;-60
2023/08/16 07:24:03;;;;;;;10.55;6.03;;;;;;;27.01;79.39;99306.72;5110400;28;20212;-60
2023/08/16 07:26:30;;;;;;;16.65;9.10;;;;;;;26.97;78.43;99287.19;5110331;28;20585;-60
2023/08/16 07:28:58;;;;;;;11.60;7.57;;;;;;;26.84;78.01;99301.97;5109828;28;20202;-60
2023/08/16 07:31:25;;;;;;;6.63;5.25;;;;;;;26.92;80.37;99300.13;5109799;28;20197;-60
2023/08/16 07:33:52;;;;;;;6.20;4.80;;;;;;;26.86;80.17;99314.91;5110020;28;20201;-60
2023/08/16 07:36:19;;;;;;;7.15;4.85;;;;;;;26.81;80.95;99310.28;5110047;28;20229;-60
2023/08/16 07:38:47;;;;;;;7.28;5.07;;;;;;;26.67;80.48;99307.94;5109676;28;20205;-61
2023/08/16 07:41:15;;;;;;;7.43;5.00;;;;;;;26.77;81.16;99311.72;5109777;28;20217;-60
2023/08/16 07:43:41;;;;;;;9.60;5.20;;;;;;;26.70;79.55;99312.75;5109888;28;20251;-60
2023/08/16 07:46:10;;;;;;;6.32;4.78;;;;;;;26.59;80.93;99311.63;5109788;28;20205;-60
2023/08/16 07:48:37;;;;;;;6.28;4.55;;;;;;;26.61;80.16;99315.63;5109743;28;20201;-60
2023/08/16 07:51:04;;;;;;;6.80;5.05;;;;;;;26.81;83.12;99319.97;5109635;28;20221;-60
2023/08/16 07:53:31;;;;;;;7.70;5.28;;;;;;;26.93;81.85;99320.09;5109730;28;20201;-61
2023/08/16 07:55:58;;;;;;;8.82;5.30;;;;;;;27.05;83.36;99315.78;5109405;28;20233;-61
2023/08/16 07:58:25;;;;;;;7.20;4.95;;;;;;;27.12;79.95;99321.78;5109402;28;20221;-61
2023/08/16 08:00:54;;;;;;;7.82;5.07;;;;;;;27.10;79.71;99323.81;5109666;28;20538;-61
2023/08/16 08:03:23;;;;;;;7.85;4.88;;;;;;;27.06;79.89;99322.66;5109508;27;20232;-61
2023/08/16 08:05:50;;;;;;;7.68;4.85;;;;;;;27.06;81.01;99322.66;5109574;28;20201;-61
2023/08/16 08:08:16;;;;;;;9.63;4.85;;;;;;;27.04;80.61;99335.16;5109337;28;20266;-61
2023/08/16 08:10:44;;;;;;;6.97;5.10;;;;;;;26.96;81.17;99332.78;5109069;28;20197;-61
2023/08/16 08:13:11;;;;;;;8.00;5.20;;;;;;;26.83;79.47;99324.00;5109496;28;20205;-61
2023/08/16 08:15:38;;;;;;;6.70;5.40;;;;;;;27.06;83.80;99327.91;5109046;28;20383;-61
2023/08/16 08:18:05;;;;;;;6.97;4.80;;;;;;;27.22;81.19;99340.50;5109252;28;20201;-61
2023/08/16 08:20:34;;;;;;;6.70;4.80;;;;;;;27.24;83.42;99330.63;5109194;28;20201;-61
2023/08/16 08:23:00;;;;;;;7.40;5.00;;;;;;;27.49;82.48;99337.72;5108309;28;20220;-61
2023/08/16 08:25:27;;;;;;;6.40;5.20;;;;;;;27.52;82.77;99329.41;5108954;28;20202;-61
2023/08/16 08:27:54;;;;;;;8.35;4.80;;;;;;;27.88;86.51;99326.06;5108766;28;20205;-61
2023/08/16 08:30:21;;;;;;;8.77;5.20;;;;;;;28.15;81.35;99331.03;5108997;28;20233;-61
2023/08/16 08:32:48;;;;;;;6.88;4.53;;;;;;;28.44;84.85;99330.31;5109028;28;20213;-61
2023/08/16 08:35:15;;;;;;;7.05;4.38;;;;;;;28.42;78.26;99336.81;5108862;28;20237;-61
2023/08/16 08:37:43;;;;;;;11.00;4.57;;;;;;;28.57;76.07;99334.59;5108547;28;20212;-61
2023/08/16 08:40:10;;;;;;;4.97;4.30;;;;;;;28.67;77.45;99345.38;5108616;28;20765;-61
2023/08/16 08:42:39;;;;;;;4.97;4.15;;;;;;;28.65;76.85;99352.72;5108550;28;20198;-61
2023/08/16 08:45:07;;;;;;;6.70;4.15;;;;;;;28.63;75.99;99353.97;5108772;28;20193;-62
2023/08/16 08:47:35;;;;;;;5.38;4.32;;;;;;;28.59;76.47;99343.06;5108877;28;20209;-62
2023/08/16 08:50:03;;;;;;;7.03;4.85;;;;;;;28.40;75.05;99349.38;5108645;28;20574;-61
2023/08/16 08:52:31;;;;;;;5.47;4.53;;;;;;;28.45;77.26;99352.16;5108456;28;20217;-63
2023/08/16 08:54:59;;;;;;;8.27;4.53;;;;;;;28.61;79.04;99354.19;5108245;28;20630;-61
2023/08/16 08:57:29;;;;;;;6.68;4.82;;;;;;;28.71;78.77;99344.94;5108621;28;20726;-62
2023/08/16 08:59:59;;;;;;;8.20;5.05;;;;;;;28.56;75.59;99359.28;5108198;28;20197;-63
2023/08/16 09:02:27;;;;;;;8.02;5.13;;;;;;;28.36;77.69;99342.91;5108645;28;20198;-61
2023/08/16 09:04:59;;;;;;;7.60;4.63;;;;;;;28.56;81.61;99330.34;5108139;28;20208;-62
2023/08/16 09:07:27;;;;;;;7.07;4.53;;;;;;;28.74;77.35;99326.06;5108498;28;20193;-62
2023/08/16 09:09:54;;;;;;;7.00;4.97;;;;;;;28.87;77.61;99329.34;5108001;28;20643;-62
2023/08/16 09:12:22;;;;;;;6.28;4.97;;;;;;;29.07;81.05;99329.09;5108210;28;20228;-62
2023/08/16 09:14:49;;;;;;;7.93;4.18;;;;;;;29.42;75.58;99340.72;5107953;28;20197;-62
2023/08/16 09:17:17;;;;;;;5.15;4.07;;;;;;;29.47;76.60;99338.19;5108268;28;20200;-62
2023/08/16 09:19:45;;;;;;;5.80;4.22;;;;;;;29.07;73.48;99328.28;5108017;28;20196;-62
2023/08/16 09:22:12;;;;;;;5.80;4.32;;;;;;;29.01;74.97;99324.69;5108049;28;20571;-62
2023/08/16 09:24:42;;;;;;;7.07;4.88;;;;;;;29.10;75.92;99328.63;5107978;28;20266;-62
2023/08/16 09:27:09;;;;;;;5.03;4.10;;;;;;;29.31;78.02;99329.13;5108109;28;21009;-62
2023/08/16 09:29:40;;;;;;;5.43;4.72;;;;;;;29.45;75.98;99324.44;5107977;28;20705;-62
2023/08/16 09:32:08;;;;;;;6.00;4.75;;;;;;;29.39;73.75;99330.63;5108118;28;20246;-62
2023/08/16 09:34:35;;;;;;;4.72;4.03;;;;;;;29.42;76.15;99325.69;5108946;28;20261;-62
2023/08/16 09:37:03;;;;;;;5.80;4.22;;;;;;;29.38;73.64;99335.09;5112091;28;20225;-62
2023/08/16 09:39:30;;;;;;;5.90;4.43;;;;;;;29.25;73.81;99332.66;5112285;28;20232;-62
2023/08/16 09:41:57;;;;;;;6.55;4.28;;;;;;;29.20;74.26;99320.16;5112020;27;20208;-62
2023/08/16 09:44:29;;;;;;;6.80;4.22;;;;;;;29.20;75.38;99327.28;5111957;28;20753;-62
2023/08/16 09:46:59;;;;;;;5.32;4.22;;;;;;;29.25;74.95;99324.75;5112061;28;20681;-62
2023/08/16 09:49:27;;;;;;;6.30;4.35;;;;;;;29.50;78.83;99324.56;5111958;28;20236;-62
2023/08/16 09:51:55;;;;;;;4.70;3.80;;;;;;;29.74;74.14;99343.84;5111968;28;20585;-62
2023/08/16 09:54:24;;;;;;;6.28;4.10;;;;;;;29.52;71.63;99330.41;5111783;28;20189;-63
2023/08/16 09:56:52;;;;;;;4.85;3.95;;;;;;;29.44;73.06;99328.91;5111950;28;20229;-62
2023/08/16 09:59:19;;;;;;;6.15;3.88;;;;;;;29.31;73.04;99329.13;5111747;28;20197;-63
2023/08/16 10:01:47;;;;;;;7.47;4.28;;;;;;;29.23;74.94;99334.72;5111697;28;20205;-62
2023/08/16 10:04:16;;;;;;;5.47;3.67;;;;;;;29.04;74.19;99326.91;5111835;27;20193;-62
2023/08/16 10:06:44;;;;;;;8.40;4.15;;;;;;;29.02;75.20;99321.06;5111637;28;20206;-63
2023/08/16 10:09:12;;;;;;;5.63;3.97;;;;;;;29.20;75.62;99322.00;5111605;28;20548;-62
2023/08/16 10:11:39;;;;;;;4.53;3.88;;;;;;;29.20;75.07;99332.53;5111662;28;20658;-62
2023/08/16 10:14:07;;;;;;;5.68;3.97;;;;;;;28.94;73.87;99329.22;5111303;28;20605;-62
2023/08/16 10:16:36;;;;;;;6.22;4.30;;;;;;;28.93;75.22;99327.63;5111190;28;20721;-62
2023/08/16 10:19:04;;;;;;;5.13;4.00;;;;;;;28.79;74.94;99326.22;5111335;28;20582;-62
2023/08/16 10:21:38;;;;;;;4.25;3.40;;;;;;;28.71;74.41;99323.91;5111352;28;20193;-62
2023/08/16 10:24:10;;;;;;;5.63;3.90;;;;;;;28.70;76.39;99322.31;5111391;28;20238;-62
2023/08/16 10:26:38;;;;;;;6.18;3.83;;;;;;;28.72;76.77;99322.88;5111675;27;20204;-62
2023/08/16 10:29:10;;;;;;;5.05;3.90;;;;;;;28.79;77.54;99310.44;5110971;28;20198;-63
2023/08/16 10:31:41;;;;;;;6.53;3.92;;;;;;;28.71;76.07;99308.94;5111607;28;20262;-62
2023/08/16 10:34:10;;;;;;;9.35;4.32;;;;;;;28.61;75.82;99308.66;5111187;28;20201;-62
2023/08/16 10:36:39;;;;;;;6.28;3.90;;;;;;;28.77;80.03;99309.84;5111432;28;20236;-61
2023/08/16 10:39:07;;;;;;;5.85;3.85;;;;;;;28.91;77.20;99303.38;5111299;28;20201;-62
2023/08/16 10:41:42;;;;;;;5.38;4.00;;;;;;;29.13;78.39;99300.25;5111058;28;20204;-61
2023/08/16 10:44:10;;;;;;;5.97;3.63;;;;;;;29.19;77.17;99299.34;5111014;28;20196;-62
2023/08/16 10:46:37;;;;;;;6.25;4.78;;;;;;;29.11;74.91;99308.38;5110494;28;20204;-63
2023/08/16 10:49:06;;;;;;;4.80;4.05;;;;;;;29.28;79.15;99297.97;5111112;28;20197;-62
2023/08/16 10:51:44;;;;;;;6.95;4.15;;;;;;;29.53;77.35;99298.56;5110704;28;20193;-62
2023/08/16 10:54:12;;;;;;;5.50;3.80;;;;;;;29.81;76.20;99301.53;5110637;28;20393;-62
2023/08/16 10:56:44;;;;;;;6.65;3.88;;;;;;;29.86;75.92;99285.84;5110468;28;20628;-62
2023/08/16 10:59:12;;;;;;;6.30;4.57;;;;;;;29.92;73.59;99292.81;5110456;28;20654;-62
2023/08/16 11:01:45;;;;;;;5.40;4.15;;;;;;;30.12;73.83;99292.44;5110402;28;20193;-62
2023/08/16 11:04:12;;;;;;;5.35;4.15;;;;;;;30.36;76.23;99288.72;5110278;28;20201;-62
2023/08/16 11:06:40;;;;;;;5.60;4.32;;;;;;;30.53;71.31;99288.75;5110442;28;20201;-62
2023/08/16 11:09:09;;;;;;;6.70;3.88;;;;;;;30.61;72.32;99292.88;5111019;28;20200;-63
2023/08/16 11:11:36;;;;;;;4.88;4.20;;;;;;;30.64;67.74;99297.66;5110177;28;20684;-62
2023/08/16 11:14:03;;;;;;;8.88;4.22;;;;;;;30.57;70.48;99294.38;5110594;28;20220;-62
2023/08/16 11:16:30;;;;;;;5.03;3.83;;;;;;;30.38;68.98;99301.69;5110234;28;20260;-63
2023/08/16 11:19:02;;;;;;;9.95;4.53;;;;;;;30.35;70.83;99308.22;5110246;28;20289;-63
2023/08/16 11:21:29;;;;;;;6.05;4.18;;;;;;;30.35;71.12;99302.94;5110122;28;20196;-63
2023/08/16 11:23:58;;;;;;;5.75;4.45;;;;;;;30.35;66.76;99305.59;5110271;28;20209;-62
2023/08/16 11:26:26;;;;;;;5.82;4.03;;;;;;;30.30;67.25;99312.59;5110237;27;20205;-63
2023/08/16 11:28:53;;;;;;;5.10;4.07;;;;;;;30.21;71.39;99304.25;5109592;28;20190;-63
2023/08/16 11:31:21;;;;;;;5.50;4.20;;;;;;;30.15;69.72;99297.25;5110129;28;20197;-63
2023/08/16 11:33:48;;;;;;;6.45;4.00;;;;;;;30.14;72.42;99296.44;5110032;28;20529;-63
2023/08/16 11:36:15;;;;;;;5.20;4.18;;;;;;;30.10;72.20;99300.56;5109803;28;20350;-63
2023/08/16 11:38:43;;;;;;;5.78;4.07;;;;;;;30.10;73.06;99302.41;5109494;28;20193;-63
2023/08/16 11:41:11;;;;;;;5.18;4.10;;;;;;;29.92;71.72;99298.88;5109617;27;20259;-63
2023/08/16 11:43:39;;;;;;;5.35;4.10;;;;;;;29.87;73.31;99301.41;5109434;28;20477;-62
2023/08/16 11:46:06;;;;;;;5.22;4.00;;;;;;;29.90;71.69;99297.50;5109768;28;20208;-63
2023/08/16 11:48:36;;;;;;;4.78;3.63;;;;;;;30.00;73.68;99293.25;5109445;28;20197;-63
2023/08/16 11:51:03;;;;;;;4.60;3.85;;;;;;;30.01;72.83;99291.44;5109530;28;20201;-63
2023/08/16 11:53:34;;;;;;;4.75;3.95;;;;;;;29.89;71.22;99293.28;5109354;28;20200;-63
2023/08/16 11:56:03;;;;;;;4.65;4.07;;;;;;;29.88;72.09;99292.50;5109609;28;20241;-63
2023/08/16 11:58:30;;;;;;;6.25;4.05;;;;;;;29.98;73.32;99292.69;5108827;28;20201;-63